sensor_id;sensor_type;location;lat;lon;timestamp;pressure;altitude;pressure_sealevel;temperature;humidity
61014;BME280;46899;47.542;19.082;2023-02-14T00:00:12;102222.56;;;1.76;100.00
61014;BME280;46899;47.542;19.082;2023-02-14T00:03:14;102210.69;;;1.79;100.00
61014;BME280;46899;47.542;19.082;2023-02-14T00:06:17;102222.22;;;1.93;100.00
61014;BME280;46899;47.542;19.082;2023-02-14T00:09:21;102218.03;;;1.95;100.00
61014;BME280;46899;47.542;19.082;2023-02-14T00:12:23;102228.59;;;2.06;100.00
61014;BME280;46899;47.542;19.082;2023-02-14T00:15:26;102229.66;;;2.13;100.00
61014;BME280;46899;47.542;19.082;2023-02-14T00:18:28;102222.66;;;2.07;100.00
61014;BME280;46899;47.542;19.082;2023-02-14T00:21:50;102223.31;;;2.00;100.00
61014;BME280;46899;47.542;19.082;2023-02-14T00:24:53;102212.72;;;2.19;100.00
61014;BME280;46899;47.542;19.082;2023-02-14T00:27:55;102218.84;;;2.23;100.00
61014;BME280;46899;47.542;19.082;2023-02-14T00:30:59;102212.03;;;2.25;100.00
61014;BME280;46899;47.542;19.082;2023-02-14T00:34:03;102210.03;;;2.15;100.00
61014;BME280;46899;47.542;19.082;2023-02-14T00:37:06;102200.75;;;2.20;100.00
61014;BME280;46899;47.542;19.082;2023-02-14T00:40:09;102205.78;;;2.15;100.00
61014;BME280;46899;47.542;19.082;2023-02-14T00:43:13;102217.44;;;2.04;100.00
61014;BME280;46899;47.542;19.082;2023-02-14T00:46:18;102228.75;;;2.11;100.00
61014;BME280;46899;47.542;19.082;2023-02-14T00:49:21;102232.44;;;2.20;100.00
61014;BME280;46899;47.542;19.082;2023-02-14T00:52:24;102226.63;;;2.26;100.00
61014;BME280;46899;47.542;19.082;2023-02-14T00:55:26;102226.53;;;2.23;100.00
61014;BME280;46899;47.542;19.082;2023-02-14T00:58:29;102229.97;;;2.23;100.00
61014;BME280;46899;47.542;19.082;2023-02-14T01:01:32;102229.25;;;2.29;100.00
61014;BME280;46899;47.542;19.082;2023-02-14T01:04:34;102224.13;;;2.29;100.00
61014;BME280;46899;47.542;19.082;2023-02-14T01:07:37;102220.37;;;2.16;100.00
61014;BME280;46899;47.542;19.082;2023-02-14T01:10:40;102214.31;;;2.14;100.00
61014;BME280;46899;47.542;19.082;2023-02-14T01:13:43;102209.09;;;2.11;100.00
61014;BME280;46899;47.542;19.082;2023-02-14T01:16:46;102203.84;;;2.08;100.00
61014;BME280;46899;47.542;19.082;2023-02-14T01:19:51;102205.59;;;2.09;100.00
61014;BME280;46899;47.542;19.082;2023-02-14T01:22:53;102205.41;;;2.03;100.00
61014;BME280;46899;47.542;19.082;2023-02-14T01:25:56;102202.03;;;2.04;100.00
61014;BME280;46899;47.542;19.082;2023-02-14T01:28:59;102184.84;;;2.01;100.00
61014;BME280;46899;47.542;19.082;2023-02-14T01:32:03;102182.37;;;2.04;100.00
61014;BME280;46899;47.542;19.082;2023-02-14T01:35:06;102191.84;;;2.07;100.00
61014;BME280;46899;47.542;19.082;2023-02-14T01:38:09;102190.19;;;2.09;100.00
61014;BME280;46899;47.542;19.082;2023-02-14T01:41:11;102190.00;;;2.03;100.00
61014;BME280;46899;47.542;19.082;2023-02-14T01:47:17;102182.87;;;1.93;100.00
61014;BME280;46899;47.542;19.082;2023-02-14T01:50:23;102196.69;;;1.98;100.00
61014;BME280;46899;47.542;19.082;2023-02-14T01:53:27;102194.06;;;1.95;100.00
61014;BME280;46899;47.542;19.082;2023-02-14T01:56:38;102195.87;;;1.99;100.00
61014;BME280;46899;47.542;19.082;2023-02-14T01:59:45;102196.78;;;2.01;100.00
61014;BME280;46899;47.542;19.082;2023-02-14T02:02:50;102187.25;;;1.95;100.00
61014;BME280;46899;47.542;19.082;2023-02-14T02:05:57;102178.03;;;2.02;100.00
61014;BME280;46899;47.542;19.082;2023-02-14T02:12:05;102181.03;;;1.89;100.00
61014;BME280;46899;47.542;19.082;2023-02-14T02:15:08;102182.19;;;1.98;100.00
61014;BME280;46899;47.542;19.082;2023-02-14T02:21:31;102162.53;;;1.99;100.00
61014;BME280;46899;47.542;19.082;2023-02-14T02:43:45;102153.72;;;2.21;100.00
61014;BME280;46899;47.542;19.082;2023-02-14T02:47:05;102149.19;;;2.12;100.00
61014;BME280;46899;47.542;19.082;2023-02-14T02:56:51;102158.25;;;1.99;100.00
61014;BME280;46899;47.542;19.082;2023-02-14T02:59:57;102152.00;;;1.90;100.00
61014;BME280;46899;47.542;19.082;2023-02-14T03:03:01;102160.38;;;1.84;100.00
61014;BME280;46899;47.542;19.082;2023-02-14T03:06:22;102151.53;;;1.75;100.00
61014;BME280;46899;47.542;19.082;2023-02-14T03:15:46;102151.50;;;1.73;100.00
61014;BME280;46899;47.542;19.082;2023-02-14T03:31:54;102148.59;;;1.91;100.00
61014;BME280;46899;47.542;19.082;2023-02-14T03:35:21;102147.59;;;1.86;100.00
61014;BME280;46899;47.542;19.082;2023-02-14T03:38:30;102145.81;;;1.83;100.00
61014;BME280;46899;47.542;19.082;2023-02-14T03:41:37;102146.84;;;1.90;100.00
61014;BME280;46899;47.542;19.082;2023-02-14T03:44:41;102149.41;;;1.88;100.00
61014;BME280;46899;47.542;19.082;2023-02-14T03:47:45;102148.50;;;1.88;100.00
61014;BME280;46899;47.542;19.082;2023-02-14T03:50:49;102151.00;;;1.86;100.00
61014;BME280;46899;47.542;19.082;2023-02-14T03:53:53;102155.16;;;1.81;100.00
61014;BME280;46899;47.542;19.082;2023-02-14T03:57:10;102153.56;;;1.85;100.00
61014;BME280;46899;47.542;19.082;2023-02-14T04:00:18;102156.94;;;1.84;100.00
61014;BME280;46899;47.542;19.082;2023-02-14T04:03:21;102160.47;;;1.87;100.00
61014;BME280;46899;47.542;19.082;2023-02-14T04:06:26;102157.75;;;1.81;100.00
61014;BME280;46899;47.542;19.082;2023-02-14T04:09:29;102156.59;;;1.72;100.00
61014;BME280;46899;47.542;19.082;2023-02-14T04:12:31;102160.72;;;1.67;100.00
61014;BME280;46899;47.542;19.082;2023-02-14T04:15:39;102152.13;;;1.66;100.00
61014;BME280;46899;47.542;19.082;2023-02-14T04:18:42;102144.31;;;1.62;100.00
61014;BME280;46899;47.542;19.082;2023-02-14T04:22:03;102144.19;;;1.57;100.00
61014;BME280;46899;47.542;19.082;2023-02-14T04:25:05;102151.00;;;1.57;100.00
61014;BME280;46899;47.542;19.082;2023-02-14T04:28:08;102152.75;;;1.58;100.00
61014;BME280;46899;47.542;19.082;2023-02-14T04:31:10;102153.31;;;1.49;100.00
61014;BME280;46899;47.542;19.082;2023-02-14T04:34:13;102160.69;;;1.38;100.00
61014;BME280;46899;47.542;19.082;2023-02-14T04:37:16;102165.91;;;1.42;100.00
61014;BME280;46899;47.542;19.082;2023-02-14T04:40:19;102160.97;;;1.21;100.00
61014;BME280;46899;47.542;19.082;2023-02-14T04:43:22;102156.81;;;0.98;100.00
61014;BME280;46899;47.542;19.082;2023-02-14T04:46:24;102166.44;;;0.80;100.00
61014;BME280;46899;47.542;19.082;2023-02-14T04:49:27;102169.81;;;0.53;100.00
61014;BME280;46899;47.542;19.082;2023-02-14T04:52:29;102159.94;;;0.40;100.00
61014;BME280;46899;47.542;19.082;2023-02-14T04:55:32;102156.13;;;0.29;100.00
61014;BME280;46899;47.542;19.082;2023-02-14T04:58:35;102157.50;;;0.20;100.00
61014;BME280;46899;47.542;19.082;2023-02-14T05:01:37;102162.25;;;0.33;100.00
61014;BME280;46899;47.542;19.082;2023-02-14T05:04:40;102152.97;;;0.36;100.00
61014;BME280;46899;47.542;19.082;2023-02-14T05:07:42;102154.16;;;0.46;100.00
61014;BME280;46899;47.542;19.082;2023-02-14T05:10:49;102164.38;;;0.44;100.00
61014;BME280;46899;47.542;19.082;2023-02-14T05:13:51;102162.25;;;0.33;100.00
61014;BME280;46899;47.542;19.082;2023-02-14T05:16:54;102160.94;;;0.20;100.00
61014;BME280;46899;47.542;19.082;2023-02-14T05:19:57;102158.66;;;0.04;100.00
61014;BME280;46899;47.542;19.082;2023-02-14T05:22:59;102156.69;;;-0.03;100.00
61014;BME280;46899;47.542;19.082;2023-02-14T05:26:04;102156.84;;;-0.21;100.00
61014;BME280;46899;47.542;19.082;2023-02-14T05:29:07;102155.63;;;-0.30;100.00
61014;BME280;46899;47.542;19.082;2023-02-14T05:32:09;102156.50;;;-0.30;100.00
61014;BME280;46899;47.542;19.082;2023-02-14T05:35:12;102148.44;;;-0.40;100.00
61014;BME280;46899;47.542;19.082;2023-02-14T05:38:15;102161.63;;;-0.52;100.00
61014;BME280;46899;47.542;19.082;2023-02-14T05:41:17;102160.44;;;-0.60;100.00
61014;BME280;46899;47.542;19.082;2023-02-14T05:44:20;102153.50;;;-0.64;100.00
61014;BME280;46899;47.542;19.082;2023-02-14T05:47:22;102156.09;;;-0.62;100.00
61014;BME280;46899;47.542;19.082;2023-02-14T05:50:25;102169.03;;;-0.58;100.00
61014;BME280;46899;47.542;19.082;2023-02-14T05:53:28;102167.91;;;-0.66;100.00
61014;BME280;46899;47.542;19.082;2023-02-14T05:56:30;102159.16;;;-0.71;100.00
61014;BME280;46899;47.542;19.082;2023-02-14T05:59:33;102169.13;;;-0.77;100.00
61014;BME280;46899;47.542;19.082;2023-02-14T06:02:35;102165.50;;;-0.82;100.00
61014;BME280;46899;47.542;19.082;2023-02-14T06:05:38;102171.38;;;-0.85;100.00
61014;BME280;46899;47.542;19.082;2023-02-14T06:08:40;102181.41;;;-0.89;100.00
61014;BME280;46899;47.542;19.082;2023-02-14T06:11:43;102175.44;;;-0.90;100.00
61014;BME280;46899;47.542;19.082;2023-02-14T06:14:45;102175.50;;;-0.88;100.00
61014;BME280;46899;47.542;19.082;2023-02-14T06:17:52;102178.81;;;-0.91;100.00
61014;BME280;46899;47.542;19.082;2023-02-14T06:20:54;102182.22;;;-0.90;100.00
61014;BME280;46899;47.542;19.082;2023-02-14T06:23:57;102188.50;;;-0.82;100.00
61014;BME280;46899;47.542;19.082;2023-02-14T06:27:00;102182.59;;;-0.81;100.00
61014;BME280;46899;47.542;19.082;2023-02-14T06:30:03;102200.72;;;-0.75;100.00
61014;BME280;46899;47.542;19.082;2023-02-14T06:33:06;102205.41;;;-0.65;100.00
61014;BME280;46899;47.542;19.082;2023-02-14T06:36:08;102216.69;;;-0.60;100.00
61014;BME280;46899;47.542;19.082;2023-02-14T06:39:11;102218.66;;;-0.53;100.00
61014;BME280;46899;47.542;19.082;2023-02-14T06:42:14;102217.22;;;-0.46;100.00
61014;BME280;46899;47.542;19.082;2023-02-14T06:45:16;102226.13;;;-0.37;100.00
61014;BME280;46899;47.542;19.082;2023-02-14T06:48:19;102223.13;;;-0.27;100.00
61014;BME280;46899;47.542;19.082;2023-02-14T06:51:21;102230.34;;;-0.17;100.00
61014;BME280;46899;47.542;19.082;2023-02-14T06:54:24;102232.50;;;-0.05;100.00
61014;BME280;46899;47.542;19.082;2023-02-14T06:57:26;102228.78;;;0.09;100.00
61014;BME280;46899;47.542;19.082;2023-02-14T07:00:29;102231.97;;;0.26;100.00
61014;BME280;46899;47.542;19.082;2023-02-14T07:03:32;102230.78;;;0.40;100.00
61014;BME280;46899;47.542;19.082;2023-02-14T07:06:35;102239.09;;;0.58;100.00
61014;BME280;46899;47.542;19.082;2023-02-14T07:09:38;102232.81;;;0.74;100.00
61014;BME280;46899;47.542;19.082;2023-02-14T07:12:40;102241.00;;;0.87;100.00
61014;BME280;46899;47.542;19.082;2023-02-14T07:15:43;102238.16;;;1.03;100.00
61014;BME280;46899;47.542;19.082;2023-02-14T07:18:46;102236.28;;;1.24;100.00
61014;BME280;46899;47.542;19.082;2023-02-14T07:21:48;102232.81;;;1.49;100.00
61014;BME280;46899;47.542;19.082;2023-02-14T07:24:51;102238.62;;;1.70;100.00
61014;BME280;46899;47.542;19.082;2023-02-14T07:27:53;102242.56;;;2.14;100.00
61014;BME280;46899;47.542;19.082;2023-02-14T07:30:59;102239.94;;;2.73;100.00
61014;BME280;46899;47.542;19.082;2023-02-14T07:34:02;102243.50;;;3.44;100.00
61014;BME280;46899;47.542;19.082;2023-02-14T07:37:05;102257.22;;;4.18;100.00
61014;BME280;46899;47.542;19.082;2023-02-14T07:40:08;102254.56;;;4.53;100.00
61014;BME280;46899;47.542;19.082;2023-02-14T07:43:17;102250.63;;;5.69;100.00
61014;BME280;46899;47.542;19.082;2023-02-14T07:46:21;102248.88;;;6.24;92.61
61014;BME280;46899;47.542;19.082;2023-02-14T07:49:24;102256.22;;;5.95;92.65
61014;BME280;46899;47.542;19.082;2023-02-14T07:52:26;102265.69;;;5.96;92.40
61014;BME280;46899;47.542;19.082;2023-02-14T07:55:29;102261.44;;;6.01;91.58
61014;BME280;46899;47.542;19.082;2023-02-14T07:58:31;102261.38;;;6.59;86.84
61014;BME280;46899;47.542;19.082;2023-02-14T08:01:34;102260.63;;;6.66;89.76
61014;BME280;46899;47.542;19.082;2023-02-14T08:04:40;102269.91;;;8.55;75.10
61014;BME280;46899;47.542;19.082;2023-02-14T08:07:43;102262.19;;;8.69;74.11
61014;BME280;46899;47.542;19.082;2023-02-14T08:10:47;102262.81;;;8.25;75.82
61014;BME280;46899;47.542;19.082;2023-02-14T08:13:50;102258.44;;;7.06;80.19
61014;BME280;46899;47.542;19.082;2023-02-14T08:16:52;102260.47;;;6.54;86.46
61014;BME280;46899;47.542;19.082;2023-02-14T08:19:55;102261.59;;;6.79;84.21
61014;BME280;46899;47.542;19.082;2023-02-14T08:22:57;102256.72;;;6.33;85.61
61014;BME280;46899;47.542;19.082;2023-02-14T08:26:00;102258.34;;;6.23;86.73
61014;BME280;46899;47.542;19.082;2023-02-14T08:29:03;102260.63;;;6.66;83.13
61014;BME280;46899;47.542;19.082;2023-02-14T08:32:05;102263.53;;;6.97;82.54
61014;BME280;46899;47.542;19.082;2023-02-14T08:35:08;102263.72;;;7.15;82.16
61014;BME280;46899;47.542;19.082;2023-02-14T08:38:10;102256.81;;;7.17;79.94
61014;BME280;46899;47.542;19.082;2023-02-14T08:41:14;102273.09;;;7.05;78.41
61014;BME280;46899;47.542;19.082;2023-02-14T08:44:17;102257.44;;;6.90;80.31
61014;BME280;46899;47.542;19.082;2023-02-14T08:47:20;102257.88;;;6.54;81.53
61014;BME280;46899;47.542;19.082;2023-02-14T08:50:22;102265.84;;;6.05;83.66
61014;BME280;46899;47.542;19.082;2023-02-14T08:53:25;102258.78;;;5.95;85.06
61014;BME280;46899;47.542;19.082;2023-02-14T08:56:27;102267.69;;;6.15;84.03
61014;BME280;46899;47.542;19.082;2023-02-14T08:59:30;102261.78;;;6.24;84.26
61014;BME280;46899;47.542;19.082;2023-02-14T09:02:33;102266.97;;;6.27;85.67
61014;BME280;46899;47.542;19.082;2023-02-14T09:05:36;102266.38;;;6.46;84.63
61014;BME280;46899;47.542;19.082;2023-02-14T09:08:38;102264.44;;;6.28;84.37
61014;BME280;46899;47.542;19.082;2023-02-14T09:11:41;102260.53;;;6.60;82.75
61014;BME280;46899;47.542;19.082;2023-02-14T09:14:44;102257.00;;;6.52;83.43
61014;BME280;46899;47.542;19.082;2023-02-14T09:17:47;102251.94;;;6.64;81.81
61014;BME280;46899;47.542;19.082;2023-02-14T09:20:50;102265.69;;;6.60;82.67
61014;BME280;46899;47.542;19.082;2023-02-14T09:23:53;102258.13;;;6.75;82.75
61014;BME280;46899;47.542;19.082;2023-02-14T09:26:55;102259.88;;;6.81;82.83
61014;BME280;46899;47.542;19.082;2023-02-14T09:29:59;102267.97;;;7.08;80.00
61014;BME280;46899;47.542;19.082;2023-02-14T09:33:01;102265.53;;;7.26;79.33
61014;BME280;46899;47.542;19.082;2023-02-14T09:36:06;102262.06;;;7.24;78.96
61014;BME280;46899;47.542;19.082;2023-02-14T09:39:21;102263.81;;;7.27;77.27
61014;BME280;46899;47.542;19.082;2023-02-14T09:45:52;102269.03;;;7.33;76.92
61014;BME280;46899;47.542;19.082;2023-02-14T09:48:57;102277.00;;;7.51;75.08
61014;BME280;46899;47.542;19.082;2023-02-14T09:52:01;102271.75;;;7.45;74.87
61014;BME280;46899;47.542;19.082;2023-02-14T09:55:05;102269.31;;;7.62;74.64
61014;BME280;46899;47.542;19.082;2023-02-14T09:58:15;102279.91;;;7.93;74.06
61014;BME280;46899;47.542;19.082;2023-02-14T10:01:26;102271.16;;;7.76;73.87
61014;BME280;46899;47.542;19.082;2023-02-14T10:04:37;102265.94;;;7.73;73.44
61014;BME280;46899;47.542;19.082;2023-02-14T10:07:59;102267.78;;;7.86;74.52
61014;BME280;46899;47.542;19.082;2023-02-14T10:11:06;102267.75;;;7.83;73.31
61014;BME280;46899;47.542;19.082;2023-02-14T10:14:31;102270.34;;;7.85;73.52
61014;BME280;46899;47.542;19.082;2023-02-14T10:17:35;102267.84;;;7.98;73.55
61014;BME280;46899;47.542;19.082;2023-02-14T10:20:49;102265.38;;;8.16;72.66
61014;BME280;46899;47.542;19.082;2023-02-14T10:23:55;102262.88;;;8.29;71.42
61014;BME280;46899;47.542;19.082;2023-02-14T10:27:47;102269.72;;;8.23;70.66
61014;BME280;46899;47.542;19.082;2023-02-14T10:30:24;102267.09;;;8.20;70.92
61014;BME280;46899;47.542;19.082;2023-02-14T10:33:28;102262.03;;;8.39;71.45
61014;BME280;46899;47.542;19.082;2023-02-14T10:36:35;102251.72;;;8.49;70.34
61014;BME280;46899;47.542;19.082;2023-02-14T10:43:15;102244.78;;;8.45;69.40
61014;BME280;46899;47.542;19.082;2023-02-14T10:46:26;102246.44;;;8.30;70.25
61014;BME280;46899;47.542;19.082;2023-02-14T10:49:45;102239.59;;;8.47;70.97
61014;BME280;46899;47.542;19.082;2023-02-14T10:53:02;102240.41;;;8.35;71.14
61014;BME280;46899;47.542;19.082;2023-02-14T10:56:12;102232.75;;;8.59;69.36
61014;BME280;46899;47.542;19.082;2023-02-14T11:02:59;102224.03;;;8.48;69.66
61014;BME280;46899;47.542;19.082;2023-02-14T11:05:53;102220.63;;;8.57;68.99
61014;BME280;46899;47.542;19.082;2023-02-14T11:08:56;102220.59;;;8.51;68.42
61014;BME280;46899;47.542;19.082;2023-02-14T11:11:58;102212.81;;;8.48;68.75
61014;BME280;46899;47.542;19.082;2023-02-14T11:21:19;102225.81;;;8.58;68.93
61014;BME280;46899;47.542;19.082;2023-02-14T11:24:32;102220.59;;;8.55;69.24
61014;BME280;46899;47.542;19.082;2023-02-14T11:27:35;102224.13;;;8.71;68.27
61014;BME280;46899;47.542;19.082;2023-02-14T11:30:40;102221.50;;;8.68;68.01
61014;BME280;46899;47.542;19.082;2023-02-14T11:33:43;102220.63;;;8.67;68.02
61014;BME280;46899;47.542;19.082;2023-02-14T11:36:46;102223.22;;;8.60;68.45
61014;BME280;46899;47.542;19.082;2023-02-14T11:39:49;102219.75;;;8.62;68.24
61014;BME280;46899;47.542;19.082;2023-02-14T11:42:52;102222.38;;;8.65;67.15
61014;BME280;46899;47.542;19.082;2023-02-14T11:46:24;102216.34;;;8.71;67.30
61014;BME280;46899;47.542;19.082;2023-02-14T11:49:35;102214.62;;;8.76;66.79
61014;BME280;46899;47.542;19.082;2023-02-14T11:52:44;102205.06;;;8.61;67.91
61014;BME280;46899;47.542;19.082;2023-02-14T11:55:52;102211.16;;;8.80;66.48
61014;BME280;46899;47.542;19.082;2023-02-14T11:58:58;102208.56;;;8.81;65.91
61014;BME280;46899;47.542;19.082;2023-02-14T12:02:39;102212.06;;;8.97;65.08
61014;BME280;46899;47.542;19.082;2023-02-14T12:05:34;102208.59;;;8.87;65.34
61014;BME280;46899;47.542;19.082;2023-02-14T12:08:37;102199.94;;;8.96;65.41
61014;BME280;46899;47.542;19.082;2023-02-14T12:11:52;102199.06;;;9.09;64.23
61014;BME280;46899;47.542;19.082;2023-02-14T12:15:10;102201.69;;;9.06;63.97
61014;BME280;46899;47.542;19.082;2023-02-14T12:21:41;102201.66;;;8.85;64.75
61014;BME280;46899;47.542;19.082;2023-02-14T12:25:19;102192.16;;;8.96;64.69
61014;BME280;46899;47.542;19.082;2023-02-14T12:28:15;102191.31;;;9.02;63.84
61014;BME280;46899;47.542;19.082;2023-02-14T12:31:20;102189.56;;;9.02;62.98
61014;BME280;46899;47.542;19.082;2023-02-14T12:34:25;102189.56;;;8.94;62.60
61014;BME280;46899;47.542;19.082;2023-02-14T12:47:39;102173.97;;;8.96;63.86
61014;BME280;46899;47.542;19.082;2023-02-14T12:50:52;102164.47;;;9.01;63.56
61014;BME280;46899;47.542;19.082;2023-02-14T13:16:25;102151.47;;;9.19;60.85
61014;BME280;46899;47.542;19.082;2023-02-14T13:22:52;102147.16;;;9.27;60.18
61014;BME280;46899;47.542;19.082;2023-02-14T13:25:58;102145.41;;;9.38;59.47
61014;BME280;46899;47.542;19.082;2023-02-14T13:29:03;102144.53;;;9.26;60.32
61014;BME280;46899;47.542;19.082;2023-02-14T13:32:08;102150.59;;;9.34;60.07
61014;BME280;46899;47.542;19.082;2023-02-14T13:35:16;102148.87;;;9.40;61.32
61014;BME280;46899;47.542;19.082;2023-02-14T13:38:19;102139.34;;;9.41;59.97
61014;BME280;46899;47.542;19.082;2023-02-14T13:41:22;102145.41;;;9.26;61.53
61014;BME280;46899;47.542;19.082;2023-02-14T13:47:46;102137.63;;;9.17;62.08
61014;BME280;46899;47.542;19.082;2023-02-14T13:50:50;102128.09;;;9.16;61.44
61014;BME280;46899;47.542;19.082;2023-02-14T13:53:54;102126.38;;;9.12;62.23
61014;BME280;46899;47.542;19.082;2023-02-14T13:56:57;102133.31;;;9.19;61.57
61014;BME280;46899;47.542;19.082;2023-02-14T14:06:27;102133.31;;;9.19;61.50
61014;BME280;46899;47.542;19.082;2023-02-14T14:12:45;102133.31;;;9.09;60.76
61014;BME280;46899;47.542;19.082;2023-02-14T14:19:33;102128.13;;;9.04;60.72
61014;BME280;46899;47.542;19.082;2023-02-14T14:22:31;102138.50;;;8.80;60.32
61014;BME280;46899;47.542;19.082;2023-02-14T14:25:47;102139.34;;;8.82;60.01
61014;BME280;46899;47.542;19.082;2023-02-14T14:28:50;102135.03;;;8.78;60.05
61014;BME280;46899;47.542;19.082;2023-02-14T14:31:52;102135.03;;;8.79;59.96
61014;BME280;46899;47.542;19.082;2023-02-14T14:38:00;102119.41;;;8.46;62.36
61014;BME280;46899;47.542;19.082;2023-02-14T14:41:03;102137.53;;;8.33;62.75
61014;BME280;46899;47.542;19.082;2023-02-14T14:44:05;102144.38;;;8.20;63.79
61014;BME280;46899;47.542;19.082;2023-02-14T14:47:10;102126.22;;;8.15;64.42
61014;BME280;46899;47.542;19.082;2023-02-14T14:50:16;102135.72;;;8.13;64.76
61014;BME280;46899;47.542;19.082;2023-02-14T14:56:52;102131.41;;;8.12;65.36
61014;BME280;46899;47.542;19.082;2023-02-14T15:00:06;102121.81;;;7.95;66.61
61014;BME280;46899;47.542;19.082;2023-02-14T15:06:14;102127.91;;;8.09;65.94
61014;BME280;46899;47.542;19.082;2023-02-14T15:09:19;102124.41;;;7.93;66.96
61014;BME280;46899;47.542;19.082;2023-02-14T15:12:25;102128.69;;;7.90;67.31
61014;BME280;46899;47.542;19.082;2023-02-14T15:15:47;102127.75;;;7.71;68.14
61014;BME280;46899;47.542;19.082;2023-02-14T15:18:53;102128.53;;;7.53;68.78
61014;BME280;46899;47.542;19.082;2023-02-14T15:21:57;102130.19;;;7.45;69.40
61014;BME280;46899;47.542;19.082;2023-02-14T15:25:00;102124.09;;;7.36;70.25
61014;BME280;46899;47.542;19.082;2023-02-14T15:28:11;102127.44;;;7.20;70.94
61014;BME280;46899;47.542;19.082;2023-02-14T15:31:14;102122.19;;;7.12;72.26
61014;BME280;46899;47.542;19.082;2023-02-14T15:34:26;102132.50;;;7.06;72.57
61014;BME280;46899;47.542;19.082;2023-02-14T15:37:29;102136.59;;;6.80;74.33
61014;BME280;46899;47.542;19.082;2023-02-14T15:40:33;102120.81;;;6.54;75.13
61014;BME280;46899;47.542;19.082;2023-02-14T15:43:36;102118.13;;;6.42;76.53
61014;BME280;46899;47.542;19.082;2023-02-14T15:46:38;102125.69;;;6.24;77.83
61014;BME280;46899;47.542;19.082;2023-02-14T15:49:42;102122.06;;;6.10;79.25
61014;BME280;46899;47.542;19.082;2023-02-14T15:52:47;102126.31;;;6.05;79.49
61014;BME280;46899;47.542;19.082;2023-02-14T15:55:50;102137.38;;;5.96;80.02
61014;BME280;46899;47.542;19.082;2023-02-14T15:59:00;102138.97;;;5.85;80.75
61014;BME280;46899;47.542;19.082;2023-02-14T16:02:14;102134.47;;;5.72;81.89
61014;BME280;46899;47.542;19.082;2023-02-14T16:05:20;102133.75;;;5.84;81.23
61014;BME280;46899;47.542;19.082;2023-02-14T16:08:34;102139.59;;;5.71;82.54
61014;BME280;46899;47.542;19.082;2023-02-14T16:11:37;102138.72;;;5.70;83.20
61014;BME280;46899;47.542;19.082;2023-02-14T16:14:40;102143.88;;;5.67;82.79
61014;BME280;46899;47.542;19.082;2023-02-14T16:17:47;102147.41;;;5.74;82.07
61014;BME280;46899;47.542;19.082;2023-02-14T16:20:49;102152.37;;;5.60;81.50
61014;BME280;46899;47.542;19.082;2023-02-14T16:27:08;102158.44;;;5.64;80.94
61014;BME280;46899;47.542;19.082;2023-02-14T16:30:14;102159.00;;;5.44;82.29
61014;BME280;46899;47.542;19.082;2023-02-14T16:33:18;102158.81;;;5.31;83.31
61014;BME280;46899;47.542;19.082;2023-02-14T16:36:26;102165.16;;;5.52;81.77
61014;BME280;46899;47.542;19.082;2023-02-14T16:39:30;102168.38;;;5.39;82.45
61014;BME280;46899;47.542;19.082;2023-02-14T16:42:33;102160.44;;;5.26;82.92
61014;BME280;46899;47.542;19.082;2023-02-14T16:45:38;102168.91;;;5.16;83.87
61014;BME280;46899;47.542;19.082;2023-02-14T16:48:41;102161.19;;;5.17;83.40
61014;BME280;46899;47.542;19.082;2023-02-14T16:51:44;102164.44;;;5.06;85.05
61014;BME280;46899;47.542;19.082;2023-02-14T16:54:48;102162.53;;;4.96;85.28
61014;BME280;46899;47.542;19.082;2023-02-14T16:57:50;102174.34;;;4.83;85.79
61014;BME280;46899;47.542;19.082;2023-02-14T17:00:54;102173.22;;;4.69;86.48
61014;BME280;46899;47.542;19.082;2023-02-14T17:04:00;102177.47;;;4.65;87.25
61014;BME280;46899;47.542;19.082;2023-02-14T17:07:02;102175.69;;;4.61;87.90
61014;BME280;46899;47.542;19.082;2023-02-14T17:10:09;102180.59;;;4.49;88.60
61014;BME280;46899;47.542;19.082;2023-02-14T17:13:12;102188.28;;;4.48;88.72
61014;BME280;46899;47.542;19.082;2023-02-14T17:16:17;102188.41;;;4.54;89.50
61014;BME280;46899;47.542;19.082;2023-02-14T17:19:20;102185.19;;;4.64;88.35
61014;BME280;46899;47.542;19.082;2023-02-14T17:22:22;102196.97;;;4.53;89.24
61014;BME280;46899;47.542;19.082;2023-02-14T17:25:26;102202.81;;;4.43;90.50
61014;BME280;46899;47.542;19.082;2023-02-14T17:28:28;102194.22;;;4.42;90.95
61014;BME280;46899;47.542;19.082;2023-02-14T17:31:33;102195.16;;;4.47;90.70
61014;BME280;46899;47.542;19.082;2023-02-14T17:34:36;102194.97;;;4.38;91.37
61014;BME280;46899;47.542;19.082;2023-02-14T17:37:39;102190.41;;;4.25;91.70
61014;BME280;46899;47.542;19.082;2023-02-14T17:40:41;102193.09;;;4.30;91.64
61014;BME280;46899;47.542;19.082;2023-02-14T17:43:45;102185.59;;;4.42;91.48
61014;BME280;46899;47.542;19.082;2023-02-14T17:46:47;102196.31;;;4.20;92.28
61014;BME280;46899;47.542;19.082;2023-02-14T17:49:50;102193.88;;;4.26;92.75
61014;BME280;46899;47.542;19.082;2023-02-14T17:52:53;102192.87;;;4.19;93.29
61014;BME280;46899;47.542;19.082;2023-02-14T17:55:56;102193.00;;;4.25;93.81
61014;BME280;46899;47.542;19.082;2023-02-14T17:58:59;102190.25;;;4.18;94.56
61014;BME280;46899;47.542;19.082;2023-02-14T18:02:02;102191.88;;;4.12;95.60
61014;BME280;46899;47.542;19.082;2023-02-14T18:05:05;102190.34;;;4.21;95.84
61014;BME280;46899;47.542;19.082;2023-02-14T18:08:08;102181.56;;;4.12;96.61
61014;BME280;46899;47.542;19.082;2023-02-14T18:11:12;102181.81;;;4.25;96.05
61014;BME280;46899;47.542;19.082;2023-02-14T18:14:15;102184.62;;;4.35;95.43
61014;BME280;46899;47.542;19.082;2023-02-14T18:17:18;102183.91;;;4.44;94.75
61014;BME280;46899;47.542;19.082;2023-02-14T18:20:21;102184.72;;;4.40;94.95